sensor_id;sensor_type;location;lat;lon;timestamp;P1;durP1;ratioP1;P2;durP2;ratioP2
61741;SDS011;47650;49.848;9.620;2022-08-19T00:02:47;21.95;;;19.60;;
61741;SDS011;47650;49.848;9.620;2022-08-19T00:05:13;19.48;;;17.63;;
61741;SDS011;47650;49.848;9.620;2022-08-19T00:07:40;21.42;;;19.48;;
61741;SDS011;47650;49.848;9.620;2022-08-19T00:10:08;19.80;;;17.90;;
61741;SDS011;47650;49.848;9.620;2022-08-19T00:12:34;22.08;;;20.02;;
61741;SDS011;47650;49.848;9.620;2022-08-19T00:15:00;20.95;;;18.98;;
61741;SDS011;47650;49.848;9.620;2022-08-19T00:17:25;21.77;;;19.67;;
61741;SDS011;47650;49.848;9.620;2022-08-19T00:19:51;19.58;;;17.73;;
61741;SDS011;47650;49.848;9.620;2022-08-19T00:22:16;20.50;;;18.40;;
61741;SDS011;47650;49.848;9.620;2022-08-19T00:24:43;21.75;;;19.70;;
61741;SDS011;47650;49.848;9.620;2022-08-19T00:27:12;21.67;;;19.45;;
61741;SDS011;47650;49.848;9.620;2022-08-19T00:29:37;20.33;;;18.27;;
61741;SDS011;47650;49.848;9.620;2022-08-19T00:32:04;19.10;;;17.30;;
61741;SDS011;47650;49.848;9.620;2022-08-19T00:34:32;19.38;;;17.58;;
61741;SDS011;47650;49.848;9.620;2022-08-19T00:36:58;20.10;;;18.30;;
61741;SDS011;47650;49.848;9.620;2022-08-19T00:39:23;21.02;;;19.02;;
61741;SDS011;47650;49.848;9.620;2022-08-19T00:41:49;20.35;;;18.45;;
61741;SDS011;47650;49.848;9.620;2022-08-19T00:44:19;20.33;;;18.42;;
61741;SDS011;47650;49.848;9.620;2022-08-19T00:46:47;20.75;;;18.85;;
61741;SDS011;47650;49.848;9.620;2022-08-19T00:49:16;21.02;;;19.15;;
61741;SDS011;47650;49.848;9.620;2022-08-19T00:51:48;20.63;;;18.75;;
61741;SDS011;47650;49.848;9.620;2022-08-19T00:54:16;21.17;;;19.10;;
61741;SDS011;47650;49.848;9.620;2022-08-19T00:56:43;20.77;;;18.98;;
61741;SDS011;47650;49.848;9.620;2022-08-19T00:59:09;20.00;;;18.20;;
61741;SDS011;47650;49.848;9.620;2022-08-19T01:01:38;21.90;;;19.60;;
61741;SDS011;47650;49.848;9.620;2022-08-19T01:04:05;21.85;;;19.85;;
61741;SDS011;47650;49.848;9.620;2022-08-19T01:06:31;20.95;;;19.05;;
61741;SDS011;47650;49.848;9.620;2022-08-19T01:08:58;20.27;;;18.17;;
61741;SDS011;47650;49.848;9.620;2022-08-19T01:11:24;22.77;;;20.70;;
61741;SDS011;47650;49.848;9.620;2022-08-19T01:13:51;21.02;;;19.08;;
61741;SDS011;47650;49.848;9.620;2022-08-19T01:16:19;20.23;;;18.25;;
61741;SDS011;47650;49.848;9.620;2022-08-19T01:18:50;21.73;;;19.73;;
61741;SDS011;47650;49.848;9.620;2022-08-19T01:21:28;20.92;;;18.90;;
61741;SDS011;47650;49.848;9.620;2022-08-19T01:23:59;20.75;;;18.65;;
61741;SDS011;47650;49.848;9.620;2022-08-19T01:26:25;21.73;;;19.63;;
61741;SDS011;47650;49.848;9.620;2022-08-19T01:28:53;21.40;;;19.35;;
61741;SDS011;47650;49.848;9.620;2022-08-19T01:31:23;21.40;;;19.40;;
61741;SDS011;47650;49.848;9.620;2022-08-19T01:33:51;20.70;;;18.80;;
61741;SDS011;47650;49.848;9.620;2022-08-19T01:36:29;22.17;;;20.08;;
61741;SDS011;47650;49.848;9.620;2022-08-19T01:38:57;21.88;;;19.88;;
61741;SDS011;47650;49.848;9.620;2022-08-19T01:41:24;20.25;;;18.40;;
61741;SDS011;47650;49.848;9.620;2022-08-19T01:43:50;21.42;;;19.33;;
61741;SDS011;47650;49.848;9.620;2022-08-19T01:46:17;22.45;;;20.33;;
61741;SDS011;47650;49.848;9.620;2022-08-19T01:48:44;22.27;;;20.08;;
61741;SDS011;47650;49.848;9.620;2022-08-19T01:51:10;21.08;;;19.02;;
61741;SDS011;47650;49.848;9.620;2022-08-19T01:53:37;21.65;;;19.58;;
61741;SDS011;47650;49.848;9.620;2022-08-19T01:56:02;20.33;;;18.42;;
61741;SDS011;47650;49.848;9.620;2022-08-19T01:58:34;21.23;;;19.23;;
61741;SDS011;47650;49.848;9.620;2022-08-19T02:01:05;22.95;;;20.65;;
61741;SDS011;47650;49.848;9.620;2022-08-19T02:03:32;20.50;;;18.50;;
61741;SDS011;47650;49.848;9.620;2022-08-19T02:05:59;19.17;;;17.27;;
61741;SDS011;47650;49.848;9.620;2022-08-19T02:08:28;20.58;;;18.63;;
61741;SDS011;47650;49.848;9.620;2022-08-19T02:14:16;21.35;;;19.33;;
61741;SDS011;47650;49.848;9.620;2022-08-19T02:16:42;21.95;;;19.80;;
61741;SDS011;47650;49.848;9.620;2022-08-19T02:19:07;21.05;;;19.05;;
61741;SDS011;47650;49.848;9.620;2022-08-19T02:21:33;20.95;;;19.05;;
61741;SDS011;47650;49.848;9.620;2022-08-19T02:23:58;20.70;;;18.67;;
61741;SDS011;47650;49.848;9.620;2022-08-19T02:26:24;20.77;;;18.73;;
61741;SDS011;47650;49.848;9.620;2022-08-19T02:28:51;21.70;;;19.60;;
61741;SDS011;47650;49.848;9.620;2022-08-19T02:31:19;26.48;;;24.08;;
61741;SDS011;47650;49.848;9.620;2022-08-19T02:33:45;24.15;;;21.70;;
61741;SDS011;47650;49.848;9.620;2022-08-19T02:36:12;23.50;;;21.33;;
61741;SDS011;47650;49.848;9.620;2022-08-19T02:38:38;23.83;;;21.42;;
61741;SDS011;47650;49.848;9.620;2022-08-19T02:41:09;24.13;;;21.73;;
61741;SDS011;47650;49.848;9.620;2022-08-19T02:43:39;24.65;;;22.25;;
61741;SDS011;47650;49.848;9.620;2022-08-19T02:46:18;23.05;;;20.75;;
61741;SDS011;47650;49.848;9.620;2022-08-19T02:48:56;23.42;;;21.13;;
61741;SDS011;47650;49.848;9.620;2022-08-19T02:51:27;23.38;;;21.08;;
61741;SDS011;47650;49.848;9.620;2022-08-19T02:53:58;23.70;;;21.33;;
61741;SDS011;47650;49.848;9.620;2022-08-19T02:56:24;24.80;;;22.42;;
61741;SDS011;47650;49.848;9.620;2022-08-19T02:58:51;23.10;;;20.77;;
61741;SDS011;47650;49.848;9.620;2022-08-19T03:01:28;24.52;;;21.90;;
61741;SDS011;47650;49.848;9.620;2022-08-19T03:03:56;23.63;;;21.35;;
61741;SDS011;47650;49.848;9.620;2022-08-19T03:06:24;24.10;;;21.77;;
61741;SDS011;47650;49.848;9.620;2022-08-19T03:08:56;23.25;;;20.88;;
61741;SDS011;47650;49.848;9.620;2022-08-19T03:11:26;24.70;;;22.33;;
61741;SDS011;47650;49.848;9.620;2022-08-19T03:13:55;23.65;;;21.25;;
61741;SDS011;47650;49.848;9.620;2022-08-19T03:16:23;24.10;;;21.83;;
61741;SDS011;47650;49.848;9.620;2022-08-19T03:18:50;22.85;;;20.65;;
61741;SDS011;47650;49.848;9.620;2022-08-19T03:21:19;21.58;;;19.48;;
61741;SDS011;47650;49.848;9.620;2022-08-19T03:23:53;21.58;;;19.48;;
61741;SDS011;47650;49.848;9.620;2022-08-19T03:26:19;22.23;;;20.13;;
61741;SDS011;47650;49.848;9.620;2022-08-19T03:28:46;22.55;;;20.35;;
61741;SDS011;47650;49.848;9.620;2022-08-19T03:31:15;23.35;;;21.02;;
61741;SDS011;47650;49.848;9.620;2022-08-19T03:33:42;23.42;;;20.95;;
61741;SDS011;47650;49.848;9.620;2022-08-19T03:36:09;22.52;;;20.33;;
61741;SDS011;47650;49.848;9.620;2022-08-19T03:38:42;21.90;;;19.88;;
61741;SDS011;47650;49.848;9.620;2022-08-19T03:41:12;22.77;;;20.48;;
61741;SDS011;47650;49.848;9.620;2022-08-19T03:43:41;21.73;;;19.83;;
61741;SDS011;47650;49.848;9.620;2022-08-19T03:46:09;21.00;;;19.08;;
61741;SDS011;47650;49.848;9.620;2022-08-19T03:48:38;21.98;;;19.73;;
61741;SDS011;47650;49.848;9.620;2022-08-19T03:51:05;20.27;;;18.48;;
61741;SDS011;47650;49.848;9.620;2022-08-19T03:53:33;20.88;;;18.83;;
61741;SDS011;47650;49.848;9.620;2022-08-19T03:56:00;22.70;;;20.50;;
61741;SDS011;47650;49.848;9.620;2022-08-19T03:58:26;21.20;;;19.20;;
61741;SDS011;47650;49.848;9.620;2022-08-19T04:00:54;22.45;;;20.25;;
61741;SDS011;47650;49.848;9.620;2022-08-19T04:03:21;21.75;;;19.55;;
61741;SDS011;47650;49.848;9.620;2022-08-19T04:05:46;20.67;;;18.70;;
61741;SDS011;47650;49.848;9.620;2022-08-19T04:08:15;20.63;;;18.65;;
61741;SDS011;47650;49.848;9.620;2022-08-19T04:10:47;20.92;;;18.88;;
61741;SDS011;47650;49.848;9.620;2022-08-19T04:13:16;21.85;;;19.73;;
61741;SDS011;47650;49.848;9.620;2022-08-19T04:15:43;21.40;;;19.50;;
61741;SDS011;47650;49.848;9.620;2022-08-19T04:18:11;21.30;;;19.30;;
61741;SDS011;47650;49.848;9.620;2022-08-19T04:20:43;20.45;;;18.40;;
61741;SDS011;47650;49.848;9.620;2022-08-19T04:25:38;21.38;;;18.75;;
61741;SDS011;47650;49.848;9.620;2022-08-19T04:28:05;21.30;;;19.20;;
61741;SDS011;47650;49.848;9.620;2022-08-19T04:30:36;20.95;;;19.00;;
61741;SDS011;47650;49.848;9.620;2022-08-19T04:33:04;20.52;;;18.58;;
61741;SDS011;47650;49.848;9.620;2022-08-19T04:35:34;20.10;;;18.08;;
61741;SDS011;47650;49.848;9.620;2022-08-19T04:38:00;22.40;;;20.10;;
61741;SDS011;47650;49.848;9.620;2022-08-19T04:40:26;20.10;;;17.45;;
61741;SDS011;47650;49.848;9.620;2022-08-19T04:43:23;19.98;;;18.05;;
61741;SDS011;47650;49.848;9.620;2022-08-19T04:45:48;20.35;;;18.45;;
61741;SDS011;47650;49.848;9.620;2022-08-19T04:48:15;21.13;;;19.00;;
61741;SDS011;47650;49.848;9.620;2022-08-19T04:50:41;19.92;;;18.13;;
61741;SDS011;47650;49.848;9.620;2022-08-19T04:53:09;19.92;;;18.15;;
61741;SDS011;47650;49.848;9.620;2022-08-19T04:55:34;20.48;;;18.48;;
61741;SDS011;47650;49.848;9.620;2022-08-19T04:58:03;20.23;;;18.42;;
61741;SDS011;47650;49.848;9.620;2022-08-19T05:00:28;19.77;;;17.70;;
61741;SDS011;47650;49.848;9.620;2022-08-19T05:02:54;21.25;;;19.23;;
61741;SDS011;47650;49.848;9.620;2022-08-19T05:05:19;18.17;;;16.38;;
61741;SDS011;47650;49.848;9.620;2022-08-19T05:07:44;19.20;;;17.40;;
61741;SDS011;47650;49.848;9.620;2022-08-19T05:10:11;19.45;;;17.65;;
61741;SDS011;47650;49.848;9.620;2022-08-19T05:12:37;18.92;;;17.13;;
61741;SDS011;47650;49.848;9.620;2022-08-19T05:15:03;18.65;;;16.95;;
61741;SDS011;47650;49.848;9.620;2022-08-19T05:17:30;18.30;;;16.60;;
61741;SDS011;47650;49.848;9.620;2022-08-19T05:19:56;19.63;;;17.65;;
61741;SDS011;47650;49.848;9.620;2022-08-19T05:22:41;18.83;;;16.95;;
61741;SDS011;47650;49.848;9.620;2022-08-19T05:25:09;18.58;;;16.77;;
61741;SDS011;47650;49.848;9.620;2022-08-19T05:27:37;18.58;;;16.67;;
61741;SDS011;47650;49.848;9.620;2022-08-19T05:30:02;18.83;;;17.10;;
61741;SDS011;47650;49.848;9.620;2022-08-19T05:32:29;19.38;;;17.40;;
61741;SDS011;47650;49.848;9.620;2022-08-19T05:34:55;18.88;;;17.02;;
61741;SDS011;47650;49.848;9.620;2022-08-19T05:37:21;17.27;;;15.60;;
61741;SDS011;47650;49.848;9.620;2022-08-19T05:39:47;17.85;;;16.15;;
61741;SDS011;47650;49.848;9.620;2022-08-19T05:42:13;18.05;;;15.90;;
61741;SDS011;47650;49.848;9.620;2022-08-19T05:47:10;16.50;;;14.93;;
61741;SDS011;47650;49.848;9.620;2022-08-19T05:49:37;17.45;;;15.85;;
61741;SDS011;47650;49.848;9.620;2022-08-19T05:52:06;16.67;;;15.15;;
61741;SDS011;47650;49.848;9.620;2022-08-19T05:54:34;15.85;;;14.32;;
61741;SDS011;47650;49.848;9.620;2022-08-19T05:57:11;17.50;;;15.80;;
61741;SDS011;47650;49.848;9.620;2022-08-19T05:59:45;15.50;;;14.10;;
61741;SDS011;47650;49.848;9.620;2022-08-19T06:02:13;15.80;;;14.18;;
61741;SDS011;47650;49.848;9.620;2022-08-19T06:04:39;16.27;;;14.68;;
61741;SDS011;47650;49.848;9.620;2022-08-19T06:07:07;15.18;;;13.77;;
61741;SDS011;47650;49.848;9.620;2022-08-19T06:09:34;15.18;;;13.77;;
61741;SDS011;47650;49.848;9.620;2022-08-19T06:12:00;16.10;;;14.52;;
61741;SDS011;47650;49.848;9.620;2022-08-19T06:14:28;15.95;;;14.38;;
61741;SDS011;47650;49.848;9.620;2022-08-19T06:16:55;16.30;;;14.70;;
61741;SDS011;47650;49.848;9.620;2022-08-19T06:19:23;16.35;;;14.60;;
61741;SDS011;47650;49.848;9.620;2022-08-19T06:22:04;15.25;;;13.75;;
61741;SDS011;47650;49.848;9.620;2022-08-19T06:24:41;15.88;;;14.13;;
61741;SDS011;47650;49.848;9.620;2022-08-19T06:27:16;16.35;;;14.65;;
61741;SDS011;47650;49.848;9.620;2022-08-19T06:29:51;15.20;;;13.73;;
61741;SDS011;47650;49.848;9.620;2022-08-19T06:32:16;15.43;;;13.98;;
61741;SDS011;47650;49.848;9.620;2022-08-19T06:34:43;14.70;;;13.35;;
61741;SDS011;47650;49.848;9.620;2022-08-19T06:39:56;14.43;;;13.05;;
61741;SDS011;47650;49.848;9.620;2022-08-19T06:42:28;15.10;;;13.75;;
61741;SDS011;47650;49.848;9.620;2022-08-19T06:44:55;13.98;;;12.57;;
61741;SDS011;47650;49.848;9.620;2022-08-19T06:47:20;14.55;;;13.25;;
61741;SDS011;47650;49.848;9.620;2022-08-19T06:49:59;14.77;;;13.30;;
61741;SDS011;47650;49.848;9.620;2022-08-19T06:52:28;15.30;;;13.48;;
61741;SDS011;47650;49.848;9.620;2022-08-19T06:54:57;15.02;;;13.73;;
61741;SDS011;47650;49.848;9.620;2022-08-19T06:57:23;14.35;;;12.73;;
61741;SDS011;47650;49.848;9.620;2022-08-19T06:59:49;14.95;;;13.65;;
61741;SDS011;47650;49.848;9.620;2022-08-19T07:02:14;15.45;;;13.95;;
61741;SDS011;47650;49.848;9.620;2022-08-19T07:04:40;14.88;;;13.52;;
61741;SDS011;47650;49.848;9.620;2022-08-19T07:07:06;14.80;;;13.32;;
61741;SDS011;47650;49.848;9.620;2022-08-19T07:09:35;14.63;;;12.55;;
61741;SDS011;47650;49.848;9.620;2022-08-19T07:12:05;16.17;;;14.45;;
61741;SDS011;47650;49.848;9.620;2022-08-19T07:17:16;14.98;;;13.50;;
61741;SDS011;47650;49.848;9.620;2022-08-19T07:19:43;13.77;;;12.47;;
61741;SDS011;47650;49.848;9.620;2022-08-19T07:22:08;14.25;;;12.80;;
61741;SDS011;47650;49.848;9.620;2022-08-19T07:24:46;14.30;;;12.90;;
61741;SDS011;47650;49.848;9.620;2022-08-19T07:27:13;13.93;;;12.52;;
61741;SDS011;47650;49.848;9.620;2022-08-19T07:29:41;14.07;;;12.77;;
61741;SDS011;47650;49.848;9.620;2022-08-19T07:32:06;13.82;;;12.50;;
61741;SDS011;47650;49.848;9.620;2022-08-19T07:34:34;14.05;;;12.60;;
61741;SDS011;47650;49.848;9.620;2022-08-19T07:37:03;12.93;;;11.63;;
61741;SDS011;47650;49.848;9.620;2022-08-19T07:39:30;12.98;;;11.65;;
61741;SDS011;47650;49.848;9.620;2022-08-19T07:41:59;12.70;;;11.43;;
61741;SDS011;47650;49.848;9.620;2022-08-19T07:44:27;12.75;;;11.43;;
61741;SDS011;47650;49.848;9.620;2022-08-19T07:46:59;12.70;;;11.10;;
61741;SDS011;47650;49.848;9.620;2022-08-19T07:49:26;11.90;;;10.67;;
61741;SDS011;47650;49.848;9.620;2022-08-19T07:51:57;11.07;;;9.95;;
61741;SDS011;47650;49.848;9.620;2022-08-19T07:54:29;11.15;;;9.95;;
61741;SDS011;47650;49.848;9.620;2022-08-19T07:56:59;11.60;;;10.10;;
61741;SDS011;47650;49.848;9.620;2022-08-19T07:59:27;10.43;;;9.52;;
61741;SDS011;47650;49.848;9.620;2022-08-19T08:01:55;10.85;;;9.75;;
61741;SDS011;47650;49.848;9.620;2022-08-19T08:04:28;10.55;;;9.43;;
61741;SDS011;47650;49.848;9.620;2022-08-19T08:07:26;11.57;;;9.33;;
61741;SDS011;47650;49.848;9.620;2022-08-19T08:10:10;10.43;;;8.57;;
61741;SDS011;47650;49.848;9.620;2022-08-19T08:12:38;10.07;;;8.80;;
61741;SDS011;47650;49.848;9.620;2022-08-19T08:15:13;9.13;;;8.20;;
61741;SDS011;47650;49.848;9.620;2022-08-19T08:17:43;8.57;;;7.78;;
61741;SDS011;47650;49.848;9.620;2022-08-19T08:20:10;10.70;;;8.25;;
61741;SDS011;47650;49.848;9.620;2022-08-19T08:22:36;12.52;;;8.30;;
61741;SDS011;47650;49.848;9.620;2022-08-19T08:25:21;10.05;;;6.97;;
61741;SDS011;47650;49.848;9.620;2022-08-19T08:27:48;8.77;;;6.85;;
61741;SDS011;47650;49.848;9.620;2022-08-19T08:30:18;8.63;;;6.55;;
61741;SDS011;47650;49.848;9.620;2022-08-19T08:32:46;8.50;;;6.57;;
61741;SDS011;47650;49.848;9.620;2022-08-19T08:35:16;9.35;;;6.60;;
61741;SDS011;47650;49.848;9.620;2022-08-19T08:37:43;8.63;;;5.53;;
61741;SDS011;47650;49.848;9.620;2022-08-19T08:40:21;10.82;;;6.30;;
61741;SDS011;47650;49.848;9.620;2022-08-19T08:51:38;8.80;;;5.13;;
61741;SDS011;47650;49.848;9.620;2022-08-19T08:54:10;6.78;;;5.65;;
61741;SDS011;47650;49.848;9.620;2022-08-19T08:56:38;6.40;;;4.75;;
61741;SDS011;47650;49.848;9.620;2022-08-19T08:59:07;8.90;;;5.30;;
61741;SDS011;47650;49.848;9.620;2022-08-19T09:01:50;5.47;;;4.57;;
61741;SDS011;47650;49.848;9.620;2022-08-19T09:04:15;5.55;;;3.90;;
61741;SDS011;47650;49.848;9.620;2022-08-19T09:07:01;4.47;;;4.05;;
61741;SDS011;47650;49.848;9.620;2022-08-19T09:09:33;3.90;;;3.50;;
61741;SDS011;47650;49.848;9.620;2022-08-19T09:14:49;5.00;;;3.70;;
61741;SDS011;47650;49.848;9.620;2022-08-19T09:17:20;6.40;;;3.67;;
61741;SDS011;47650;49.848;9.620;2022-08-19T09:22:40;5.32;;;3.75;;
61741;SDS011;47650;49.848;9.620;2022-08-19T09:25:12;4.65;;;3.67;;
61741;SDS011;47650;49.848;9.620;2022-08-19T09:27:40;5.38;;;3.80;;
61741;SDS011;47650;49.848;9.620;2022-08-19T09:30:07;5.32;;;3.60;;
61741;SDS011;47650;49.848;9.620;2022-08-19T09:32:35;5.30;;;3.45;;
61741;SDS011;47650;49.848;9.620;2022-08-19T09:35:03;4.88;;;3.92;;
61741;SDS011;47650;49.848;9.620;2022-08-19T09:37:28;5.68;;;3.78;;
61741;SDS011;47650;49.848;9.620;2022-08-19T09:39:54;5.82;;;4.18;;
61741;SDS011;47650;49.848;9.620;2022-08-19T09:42:19;6.53;;;4.68;;
61741;SDS011;47650;49.848;9.620;2022-08-19T09:44:45;5.78;;;3.78;;
61741;SDS011;47650;49.848;9.620;2022-08-19T09:47:11;6.53;;;5.57;;
61741;SDS011;47650;49.848;9.620;2022-08-19T09:49:39;9.05;;;5.05;;
61741;SDS011;47650;49.848;9.620;2022-08-19T09:52:05;5.38;;;4.55;;
61741;SDS011;47650;49.848;9.620;2022-08-19T09:54:36;5.88;;;4.68;;
61741;SDS011;47650;49.848;9.620;2022-08-19T09:57:04;5.55;;;4.78;;
61741;SDS011;47650;49.848;9.620;2022-08-19T09:59:30;4.93;;;4.38;;
61741;SDS011;47650;49.848;9.620;2022-08-19T10:01:55;5.35;;;4.55;;
61741;SDS011;47650;49.848;9.620;2022-08-19T10:04:21;5.70;;;4.63;;
61741;SDS011;47650;49.848;9.620;2022-08-19T10:06:48;7.63;;;4.90;;
61741;SDS011;47650;49.848;9.620;2022-08-19T10:09:16;5.65;;;5.05;;
61741;SDS011;47650;49.848;9.620;2022-08-19T10:11:43;4.82;;;4.38;;
61741;SDS011;47650;49.848;9.620;2022-08-19T10:14:15;7.13;;;5.03;;
61741;SDS011;47650;49.848;9.620;2022-08-19T10:16:41;4.93;;;4.30;;
61741;SDS011;47650;49.848;9.620;2022-08-19T10:19:08;4.38;;;3.95;;
61741;SDS011;47650;49.848;9.620;2022-08-19T10:21:35;3.85;;;3.47;;
61741;SDS011;47650;49.848;9.620;2022-08-19T10:24:02;5.13;;;4.60;;
61741;SDS011;47650;49.848;9.620;2022-08-19T10:26:30;6.72;;;4.30;;
61741;SDS011;47650;49.848;9.620;2022-08-19T10:28:58;4.18;;;3.60;;
61741;SDS011;47650;49.848;9.620;2022-08-19T10:31:25;4.32;;;3.67;;
61741;SDS011;47650;49.848;9.620;2022-08-19T10:33:53;4.18;;;3.78;;
61741;SDS011;47650;49.848;9.620;2022-08-19T10:36:25;4.50;;;3.80;;
61741;SDS011;47650;49.848;9.620;2022-08-19T10:38:56;4.22;;;3.35;;
61741;SDS011;47650;49.848;9.620;2022-08-19T10:41:24;4.97;;;3.53;;
61741;SDS011;47650;49.848;9.620;2022-08-19T10:43:54;3.83;;;3.38;;
61741;SDS011;47650;49.848;9.620;2022-08-19T10:46:23;5.22;;;3.50;;
61741;SDS011;47650;49.848;9.620;2022-08-19T10:48:50;5.53;;;3.08;;
61741;SDS011;47650;49.848;9.620;2022-08-19T10:51:16;4.63;;;2.97;;
61741;SDS011;47650;49.848;9.620;2022-08-19T10:54:00;4.35;;;3.08;;
61741;SDS011;47650;49.848;9.620;2022-08-19T10:56:26;4.95;;;3.08;;
61741;SDS011;47650;49.848;9.620;2022-08-19T10:59:12;5.07;;;3.08;;
61741;SDS011;47650;49.848;9.620;2022-08-19T11:01:39;3.40;;;2.95;;
61741;SDS011;47650;49.848;9.620;2022-08-19T11:04:05;4.28;;;3.08;;
61741;SDS011;47650;49.848;9.620;2022-08-19T11:06:34;3.92;;;3.28;;
61741;SDS011;47650;49.848;9.620;2022-08-19T11:08:59;4.95;;;2.88;;
61741;SDS011;47650;49.848;9.620;2022-08-19T11:11:25;3.58;;;2.83;;
61741;SDS011;47650;49.848;9.620;2022-08-19T11:13:51;4.10;;;2.83;;
61741;SDS011;47650;49.848;9.620;2022-08-19T11:16:19;3.47;;;2.92;;
61741;SDS011;47650;49.848;9.620;2022-08-19T11:18:48;5.78;;;3.38;;
61741;SDS011;47650;49.848;9.620;2022-08-19T11:21:16;3.03;;;2.75;;
61741;SDS011;47650;49.848;9.620;2022-08-19T11:23:46;3.13;;;2.60;;
61741;SDS011;47650;49.848;9.620;2022-08-19T11:26:13;3.83;;;3.00;;
61741;SDS011;47650;49.848;9.620;2022-08-19T11:28:39;3.13;;;2.78;;
61741;SDS011;47650;49.848;9.620;2022-08-19T11:31:09;4.47;;;3.22;;
61741;SDS011;47650;49.848;9.620;2022-08-19T11:33:37;3.42;;;3.03;;
61741;SDS011;47650;49.848;9.620;2022-08-19T11:36:03;4.18;;;2.90;;
61741;SDS011;47650;49.848;9.620;2022-08-19T11:38:28;2.75;;;2.53;;
61741;SDS011;47650;49.848;9.620;2022-08-19T11:40:55;3.22;;;2.60;;
61741;SDS011;47650;49.848;9.620;2022-08-19T11:43:23;4.25;;;2.38;;
61741;SDS011;47650;49.848;9.620;2022-08-19T11:45:51;2.65;;;2.40;;
61741;SDS011;47650;49.848;9.620;2022-08-19T11:48:16;4.72;;;2.95;;
61741;SDS011;47650;49.848;9.620;2022-08-19T11:50:42;4.15;;;2.50;;
61741;SDS011;47650;49.848;9.620;2022-08-19T11:53:09;4.32;;;2.40;;
61741;SDS011;47650;49.848;9.620;2022-08-19T11:55:53;3.55;;;2.50;;
61741;SDS011;47650;49.848;9.620;2022-08-19T11:58:22;3.45;;;2.58;;
61741;SDS011;47650;49.848;9.620;2022-08-19T12:00:48;3.05;;;2.60;;
61741;SDS011;47650;49.848;9.620;2022-08-19T12:03:15;2.85;;;2.53;;
61741;SDS011;47650;49.848;9.620;2022-08-19T12:05:41;4.22;;;2.53;;
61741;SDS011;47650;49.848;9.620;2022-08-19T12:08:06;4.05;;;2.35;;
61741;SDS011;47650;49.848;9.620;2022-08-19T12:10:32;3.30;;;2.20;;
61741;SDS011;47650;49.848;9.620;2022-08-19T12:13:00;3.50;;;2.25;;
61741;SDS011;47650;49.848;9.620;2022-08-19T12:15:27;2.25;;;1.95;;
61741;SDS011;47650;49.848;9.620;2022-08-19T12:17:55;3.08;;;2.00;;
61741;SDS011;47650;49.848;9.620;2022-08-19T12:20:23;2.70;;;2.20;;
61741;SDS011;47650;49.848;9.620;2022-08-19T12:22:49;3.47;;;2.10;;
61741;SDS011;47650;49.848;9.620;2022-08-19T12:25:15;2.45;;;2.00;;
61741;SDS011;47650;49.848;9.620;2022-08-19T12:27:41;3.63;;;2.00;;
61741;SDS011;47650;49.848;9.620;2022-08-19T12:30:07;3.38;;;1.90;;
61741;SDS011;47650;49.848;9.620;2022-08-19T12:32:35;2.20;;;2.00;;
61741;SDS011;47650;49.848;9.620;2022-08-19T12:35:01;3.20;;;2.20;;
61741;SDS011;47650;49.848;9.620;2022-08-19T12:37:26;3.53;;;2.00;;
61741;SDS011;47650;49.848;9.620;2022-08-19T12:39:52;3.10;;;2.22;;
61741;SDS011;47650;49.848;9.620;2022-08-19T12:42:17;1.73;;;1.63;;
61741;SDS011;47650;49.848;9.620;2022-08-19T12:44:43;4.05;;;2.13;;
61741;SDS011;47650;49.848;9.620;2022-08-19T12:47:11;2.92;;;2.13;;
61741;SDS011;47650;49.848;9.620;2022-08-19T12:49:38;2.53;;;2.30;;
61741;SDS011;47650;49.848;9.620;2022-08-19T12:52:07;2.40;;;1.90;;
61741;SDS011;47650;49.848;9.620;2022-08-19T12:54:34;3.22;;;2.08;;
61741;SDS011;47650;49.848;9.620;2022-08-19T12:57:00;2.55;;;2.17;;
61741;SDS011;47650;49.848;9.620;2022-08-19T12:59:30;2.90;;;2.00;;
61741;SDS011;47650;49.848;9.620;2022-08-19T13:01:55;5.63;;;2.15;;
61741;SDS011;47650;49.848;9.620;2022-08-19T13:04:22;2.90;;;1.98;;
61741;SDS011;47650;49.848;9.620;2022-08-19T13:06:49;2.67;;;2.10;;
61741;SDS011;47650;49.848;9.620;2022-08-19T13:09:15;2.83;;;2.30;;
61741;SDS011;47650;49.848;9.620;2022-08-19T13:11:41;5.55;;;2.35;;
61741;SDS011;47650;49.848;9.620;2022-08-19T13:14:08;134.82;;;13.50;;
61741;SDS011;47650;49.848;9.620;2022-08-19T13:16:36;5.53;;;2.28;;
61741;SDS011;47650;49.848;9.620;2022-08-19T13:19:02;2.35;;;2.15;;
61741;SDS011;47650;49.848;9.620;2022-08-19T13:21:29;2.30;;;2.10;;
61741;SDS011;47650;49.848;9.620;2022-08-19T13:23:55;3.25;;;2.13;;
61741;SDS011;47650;49.848;9.620;2022-08-19T13:26:23;2.80;;;2.22;;
61741;SDS011;47650;49.848;9.620;2022-08-19T13:28:49;4.35;;;2.50;;
61741;SDS011;47650;49.848;9.620;2022-08-19T13:31:34;2.40;;;2.20;;
61741;SDS011;47650;49.848;9.620;2022-08-19T13:34:25;4.13;;;2.40;;
61741;SDS011;47650;49.848;9.620;2022-08-19T13:36:54;3.25;;;2.15;;
61741;SDS011;47650;49.848;9.620;2022-08-19T13:39:20;4.53;;;2.03;;
61741;SDS011;47650;49.848;9.620;2022-08-19T13:41:47;3.53;;;2.17;;
61741;SDS011;47650;49.848;9.620;2022-08-19T13:44:14;3.13;;;2.00;;
61741;SDS011;47650;49.848;9.620;2022-08-19T13:46:43;4.15;;;2.38;;
61741;SDS011;47650;49.848;9.620;2022-08-19T13:49:09;2.92;;;2.15;;
61741;SDS011;47650;49.848;9.620;2022-08-19T13:51:35;2.55;;;2.30;;
61741;SDS011;47650;49.848;9.620;2022-08-19T13:54:02;3.75;;;2.10;;
61741;SDS011;47650;49.848;9.620;2022-08-19T13:56:27;2.20;;;1.95;;
61741;SDS011;47650;49.848;9.620;2022-08-19T13:58:53;5.03;;;2.27;;
61741;SDS011;47650;49.848;9.620;2022-08-19T14:01:20;2.72;;;2.13;;
61741;SDS011;47650;49.848;9.620;2022-08-19T14:03:46;2.42;;;2.00;;
61741;SDS011;47650;49.848;9.620;2022-08-19T14:06:14;2.92;;;2.00;;
61741;SDS011;47650;49.848;9.620;2022-08-19T14:08:40;5.20;;;1.80;;
61741;SDS011;47650;49.848;9.620;2022-08-19T14:11:07;9.70;;;2.25;;
61741;SDS011;47650;49.848;9.620;2022-08-19T14:13:33;16.65;;;3.08;;
61741;SDS011;47650;49.848;9.620;2022-08-19T14:16:00;7.88;;;2.40;;
61741;SDS011;47650;49.848;9.620;2022-08-19T14:18:27;8.32;;;2.30;;
61741;SDS011;47650;49.848;9.620;2022-08-19T14:20:52;3.45;;;2.33;;
61741;SDS011;47650;49.848;9.620;2022-08-19T14:23:17;2.85;;;2.00;;
61741;SDS011;47650;49.848;9.620;2022-08-19T14:25:43;5.47;;;2.25;;
61741;SDS011;47650;49.848;9.620;2022-08-19T14:28:08;3.75;;;2.28;;
61741;SDS011;47650;49.848;9.620;2022-08-19T14:30:36;2.60;;;2.20;;
61741;SDS011;47650;49.848;9.620;2022-08-19T14:33:02;7.47;;;2.40;;
61741;SDS011;47650;49.848;9.620;2022-08-19T14:35:30;7.20;;;2.60;;
61741;SDS011;47650;49.848;9.620;2022-08-19T14:38:01;4.13;;;2.60;;
61741;SDS011;47650;49.848;9.620;2022-08-19T14:40:30;6.30;;;2.50;;
61741;SDS011;47650;49.848;9.620;2022-08-19T14:42:59;10.98;;;2.42;;
61741;SDS011;47650;49.848;9.620;2022-08-19T14:45:28;9.73;;;2.78;;
61741;SDS011;47650;49.848;9.620;2022-08-19T14:47:55;14.55;;;2.72;;
61741;SDS011;47650;49.848;9.620;2022-08-19T14:50:24;14.05;;;2.88;;
61741;SDS011;47650;49.848;9.620;2022-08-19T14:52:49;10.93;;;2.63;;
61741;SDS011;47650;49.848;9.620;2022-08-19T14:55:18;6.38;;;2.80;;
61741;SDS011;47650;49.848;9.620;2022-08-19T14:57:44;2.90;;;2.20;;
61741;SDS011;47650;49.848;9.620;2022-08-19T15:00:11;4.57;;;2.53;;
61741;SDS011;47650;49.848;9.620;2022-08-19T15:02:48;3.33;;;2.40;;
61741;SDS011;47650;49.848;9.620;2022-08-19T15:05:15;3.08;;;2.10;;
61741;SDS011;47650;49.848;9.620;2022-08-19T15:07:42;2.50;;;2.28;;
61741;SDS011;47650;49.848;9.620;2022-08-19T15:10:08;3.00;;;2.40;;